New Roads, LA

7:00 AM CST on December 15, 2019 (GMT -0600)
False River | | Change Station
Active Advisory: Dense Fog Advisory

Elev 39 ft 30.72 °N, 91.48 °W | Updated 25 minutes ago

Overcast
Overcast
54 °F
Feels Like 54 °F
N
5
Wind Variable Wind from SE

Today
High -- | Low -- °F
--% Chance of Precip.
Yesterday
High -- | Low -- °F
Precip. -- in
Pressure 29.96 in
Visibility 0.8 miles
Clouds Overcast 200 ft
Dew Point 54 °F
Humidity 100%
Rainfall 0.00 in
Snow Depth Not available.
6:55 AM 5:06 PM
Waning Gibbous, 87% visible
METAR KHZR 151235Z AUTO 13004KT 3/4SM BR OVC002 12/12 A2996 RMK AO2
Pressure 29.96 in
Visibility 0.8 miles
Clouds Overcast 200 ft
Dew Point 54 °F
Humidity 100%
Rainfall 0.00 in
Snow Depth Not available.
6:55 AM 5:06 PM
Waning Gibbous, 87% visible
METAR KHZR 151235Z AUTO 13004KT 3/4SM BR OVC002 12/12 A2996 RMK AO2

Get Your Daily Forecast Email!

Thanks for signing up!

Be on the lookout for a verification email in your inbox.

You'll start receiving severe weather alerts in your inbox..

×

10-Day Weather Forecast

Almanac

Astronomy

Dec. 15, 2019 Rise Set
Actual Time
Civil Twilight
Nautical Twilight
Astronomical Twilight
Moon
Length of Visible Light
Length of Day
Tomorrow will be .
, % of the Moon is Illuminated

Today's Extremes

State Highs State Lows

Community

WunderPhotos

Category 6

Welcome to Category 6. This is the collective home for Weather Underground's featured writeups by Dr. Jeff Masters (right), Bob Henson (left), Chris Burt, and other regular contributors.

Nearby

Air Quality

  Air Quality AQ Index Pollutant
Not available.

Snow Depth

Station Depth Elevation

Earthquake Activity

City Distance Mag. Time & Date
Minimum magnitude displayed is 2.5.

Coastal Water Temperatures

Place Temperature

Stations

Nearby Weather Stations

Station Location Temp. Windchill Dew Point Humidity Wind Precip. Elev Updated Type
                   

Watches & Warnings

Dense Fog Advisory
Issued: 6:52 AM CST Dec. 15, 2019 – National Weather Service

... Dense fog advisory is cancelled...

Some foggy to hazy conditions may be still be around in patches
but should lift completely by 830 am CST.


24/rr